createdAt,value
2022-09-07T00:02:05.336Z,99921.09
2022-09-07T00:04:32.146Z,99916.53
2022-09-07T00:06:58.982Z,99929.38
2022-09-07T00:09:25.725Z,99920.75
2022-09-07T00:11:52.467Z,99920.28
2022-09-07T00:14:19.245Z,99926.09
2022-09-07T00:16:46.085Z,99915.91
2022-09-07T00:19:13.322Z,99919.81
2022-09-07T00:21:40.203Z,99920.28
2022-09-07T00:24:07.007Z,99913.97
2022-09-07T00:26:33.766Z,99911.50
2022-09-07T00:29:02.238Z,99912.97
2022-09-07T00:31:30.575Z,99906.63
2022-09-07T00:34:00.665Z,99899.88
2022-09-07T00:36:27.842Z,99905.66
2022-09-07T00:38:54.868Z,99903.16
2022-09-07T00:41:23.233Z,99889.84
2022-09-07T00:43:53.285Z,99894.47
2022-09-07T00:46:36.830Z,99905.03
2022-09-07T00:49:18.168Z,99899.44
2022-09-07T00:51:55.020Z,99907.31
2022-09-07T00:54:28.067Z,99899.81
2022-09-07T00:56:55.728Z,99898.22
2022-09-07T00:59:27.182Z,99893.84
2022-09-07T01:01:54.311Z,99897.13
2022-09-07T01:04:23.050Z,99895.66
2022-09-07T01:06:50.192Z,99890.66
2022-09-07T01:09:19.908Z,99878.66
2022-09-07T01:11:51.039Z,99880.94
2022-09-07T01:14:26.348Z,99882.03
2022-09-07T01:17:08.130Z,99883.50
2022-09-07T01:19:53.155Z,99868.78
2022-09-07T01:23:13.859Z,99866.09
2022-09-07T01:26:18.147Z,99861.78
2022-09-07T01:28:49.545Z,99859.72
2022-09-07T01:31:16.135Z,99861.00
2022-09-07T01:33:59.766Z,99864.31
2022-09-07T01:36:29.008Z,99861.66
2022-09-07T01:39:02.605Z,99859.13
2022-09-07T01:41:59.155Z,99859.97
2022-09-07T01:45:01.132Z,99861.41
2022-09-07T01:47:57.063Z,99856.66
2022-09-07T01:50:29.892Z,99854.09
2022-09-07T01:53:01.547Z,99854.72
2022-09-07T01:55:48.682Z,99852.88
2022-09-07T01:58:38.456Z,99854.72
2022-09-07T02:01:12.518Z,99857.88
2022-09-07T02:03:46.306Z,99848.47
2022-09-07T02:06:15.685Z,99849.09
2022-09-07T02:09:05.559Z,99852.81
2022-09-07T02:11:37.683Z,99859.91
2022-09-07T02:14:14.675Z,99866.28
2022-09-07T02:16:58.428Z,99863.41
2022-09-07T02:19:29.569Z,99867.97
2022-09-07T02:22:04.209Z,99858.41
2022-09-07T02:24:37.799Z,99864.19
2022-09-07T02:27:09.793Z,99861.50
2022-09-07T02:29:36.661Z,99859.25
2022-09-07T02:32:03.838Z,99860.03
2022-09-07T02:34:31.827Z,99848.66
2022-09-07T02:37:02.156Z,99857.97
2022-09-07T02:39:29.368Z,99853.25
2022-09-07T02:41:56.175Z,99846.81
2022-09-07T02:44:27.913Z,99842.84
2022-09-07T02:47:00.439Z,99846.53
2022-09-07T02:49:54.150Z,99838.91
2022-09-07T02:52:39.086Z,99841.91
2022-09-07T02:55:23.355Z,99836.22
2022-09-07T02:58:12.436Z,99839.69
2022-09-07T03:00:51.701Z,99844.31
2022-09-07T03:03:47.458Z,99840.19
2022-09-07T03:06:28.351Z,99839.78
2022-09-07T03:08:58.414Z,99834.16
2022-09-07T03:11:25.907Z,99839.69
2022-09-07T03:13:52.786Z,99835.31
2022-09-07T03:16:19.624Z,99833.25
2022-09-07T03:18:46.487Z,99827.88
2022-09-07T03:21:13.232Z,99821.91
2022-09-07T03:23:39.920Z,99825.63
2022-09-07T03:26:06.814Z,99819.00
2022-09-07T03:28:33.568Z,99801.53
2022-09-07T03:31:02.142Z,99800.53
2022-09-07T03:33:28.966Z,99803.03
2022-09-07T03:36:02.484Z,99795.38
2022-09-07T03:38:30.728Z,99798.31
2022-09-07T03:41:02.142Z,99797.91
2022-09-07T03:43:29.824Z,99795.06
2022-09-07T03:46:01.368Z,99797.41
2022-09-07T03:48:31.531Z,99794.19
2022-09-07T03:51:09.619Z,99792.53
2022-09-07T03:53:39.285Z,99776.94
2022-09-07T03:56:09.038Z,99776.75
2022-09-07T03:58:36.414Z,99771.38
2022-09-07T04:01:11.318Z,99771.13
2022-09-07T04:03:39.598Z,99777.53
2022-09-07T04:06:06.451Z,99769.88
2022-09-07T04:08:34.791Z,99772.16
2022-09-07T04:11:04.071Z,99770.25
2022-09-07T04:13:31.884Z,99766.91
2022-09-07T04:15:58.563Z,99771.22
2022-09-07T04:18:25.686Z,99765.78
2022-09-07T04:20:52.442Z,99767.84
2022-09-07T04:23:19.587Z,99771.63
2022-09-07T04:25:50.587Z,99765.78
2022-09-07T04:28:18.696Z,99768.34
2022-09-07T04:30:45.972Z,99760.28
2022-09-07T04:33:13.727Z,99752.84
2022-09-07T04:35:41.883Z,99760.09
2022-09-07T04:38:14.289Z,99763.25
2022-09-07T04:40:41.492Z,99773.81
2022-09-07T04:43:09.612Z,99774.84
2022-09-07T04:45:37.405Z,99767.13
2022-09-07T04:48:04.939Z,99763.19
2022-09-07T04:50:31.975Z,99768.97
2022-09-07T04:52:58.648Z,99768.94
2022-09-07T04:55:25.405Z,99763.28
2022-09-07T04:57:52.112Z,99761.16
2022-09-07T05:00:19.575Z,99769.84
2022-09-07T05:02:46.374Z,99761.56
2022-09-07T05:05:13.361Z,99755.34
2022-09-07T05:07:40.121Z,99750.78
2022-09-07T05:10:07.114Z,99754.31
2022-09-07T05:12:33.816Z,99747.47
2022-09-07T05:15:01.649Z,99744.16
2022-09-07T05:17:31.042Z,99746.22
2022-09-07T05:19:58.572Z,99744.16
2022-09-07T05:22:25.453Z,99739.81
2022-09-07T05:24:52.193Z,99738.56
2022-09-07T05:27:19.163Z,99742.44
2022-09-07T05:30:03.842Z,99733.53
2022-09-07T05:32:32.268Z,99737.88
2022-09-07T05:34:58.934Z,99744.09
2022-09-07T05:37:25.844Z,99749.03
2022-09-07T05:39:56.890Z,99751.34
2022-09-07T05:42:23.904Z,99765.63
2022-09-07T05:44:50.608Z,99762.13
2022-09-07T05:47:17.337Z,99762.47
2022-09-07T05:49:44.085Z,99762.59
2022-09-07T05:52:10.889Z,99771.72
2022-09-07T05:54:37.606Z,99763.44
2022-09-07T05:57:04.697Z,99750.53
2022-09-07T05:59:31.429Z,99753.22
2022-09-07T06:01:58.332Z,99754.44
2022-09-07T06:04:25.096Z,99757.78
2022-09-07T06:07:20.123Z,99756.31
2022-09-07T06:12:25.893Z,99747.41
2022-09-07T06:14:52.602Z,99743.91
2022-09-07T06:17:19.722Z,99748.44
2022-09-07T06:19:46.473Z,99748.25
2022-09-07T06:22:13.380Z,99746.19
2022-09-07T06:24:40.132Z,99740.78
2022-09-07T06:27:06.891Z,99740.34
2022-09-07T06:29:33.540Z,99745.75
2022-09-07T06:34:47.016Z,99741.59
2022-09-07T06:37:14.087Z,99745.31
2022-09-07T06:39:40.903Z,99736.19
2022-09-07T06:42:07.605Z,99742.81
2022-09-07T06:44:41.804Z,99734.97
2022-09-07T06:47:08.545Z,99733.69
2022-09-07T06:49:35.266Z,99742.41
2022-09-07T06:52:02.225Z,99742.00
2022-09-07T06:57:16.255Z,99753.03
2022-09-07T06:59:42.940Z,99750.94
2022-09-07T07:02:11.543Z,99753.00
2022-09-07T07:04:41.143Z,99744.09
2022-09-07T07:07:13.695Z,99749.66
2022-09-07T07:09:41.643Z,99744.22
2022-09-07T07:12:09.542Z,99755.22
2022-09-07T07:14:39.734Z,99763.72
2022-09-07T07:17:09.706Z,99762.03
2022-09-07T07:19:36.449Z,99761.66
2022-09-07T07:24:50.126Z,99768.06
2022-09-07T07:27:17.629Z,99766.59
2022-09-07T07:29:45.328Z,99783.38
2022-09-07T07:32:12.010Z,99775.50
2022-09-07T07:34:38.790Z,99776.41
2022-09-07T07:37:05.473Z,99770.16
2022-09-07T07:42:18.843Z,99783.19
2022-09-07T07:44:45.624Z,99776.41
2022-09-07T07:47:12.434Z,99777.03
2022-09-07T07:49:39.060Z,99782.97
2022-09-07T07:54:53.734Z,99796.66
2022-09-07T07:57:20.476Z,99804.09
2022-09-07T07:59:47.134Z,99801.78
2022-09-07T08:02:16.296Z,99799.94
2022-09-07T08:04:43.402Z,99799.28
2022-09-07T08:07:12.081Z,99790.47
2022-09-07T08:09:43.785Z,99791.41
2022-09-07T08:12:16.764Z,99807.91
2022-09-07T08:14:43.932Z,99803.31
2022-09-07T08:17:13.207Z,99804.84
2022-09-07T08:19:40.354Z,99811.31
2022-09-07T08:22:08.810Z,99804.59
2022-09-07T08:24:35.584Z,99809.69
2022-09-07T08:27:02.625Z,99802.69
2022-09-07T08:29:33.564Z,99800.03
2022-09-07T08:32:02.617Z,99803.84
2022-09-07T08:34:29.384Z,99805.81
2022-09-07T08:36:56.085Z,99803.34
2022-09-07T08:39:22.759Z,99805.63
2022-09-07T08:41:55.534Z,99814.09
2022-09-07T08:44:27.298Z,99818.75
2022-09-07T08:47:08.810Z,99823.69
2022-09-07T08:49:57.293Z,99822.72
2022-09-07T08:52:34.074Z,99822.72
2022-09-07T08:55:14.372Z,99822.56
2022-09-07T08:57:47.807Z,99824.81
2022-09-07T09:00:17.720Z,99835.09
2022-09-07T09:02:45.639Z,99828.88
2022-09-07T09:05:53.488Z,99835.31
2022-09-07T09:08:31.997Z,99842.28
2022-09-07T09:11:01.597Z,99835.19
2022-09-07T09:13:46.532Z,99836.13
2022-09-07T09:16:37.986Z,99836.72
2022-09-07T09:19:16.832Z,99839.41
2022-09-07T09:21:43.744Z,99839.31
2022-09-07T09:24:21.846Z,99839.31
2022-09-07T09:26:56.632Z,99847.31
2022-09-07T09:29:23.996Z,99844.44
2022-09-07T09:31:50.853Z,99851.97
2022-09-07T09:34:23.634Z,99845.28
2022-09-07T09:36:56.590Z,99843.88
2022-09-07T09:39:33.503Z,99848.06
2022-09-07T09:42:24.349Z,99850.31
2022-09-07T09:44:52.539Z,99849.06
2022-09-07T09:47:30.184Z,99849.88
2022-09-07T09:52:29.131Z,99844.56
2022-09-07T09:53:04.499Z,99859.41
2022-09-07T09:55:36.100Z,99844.72
2022-09-07T10:01:25.279Z,99853.91
2022-09-07T10:06:20.812Z,99863.03
2022-09-07T10:09:05.370Z,99865.31
2022-09-07T10:14:44.234Z,99872.34
2022-09-07T10:17:21.802Z,99865.88
2022-09-07T10:19:49.647Z,99871.06
2022-09-07T10:22:33.523Z,99867.09
2022-09-07T10:25:01.359Z,99864.78
2022-09-07T10:27:37.328Z,99881.19
2022-09-07T10:30:15.262Z,99873.03
2022-09-07T10:32:48.823Z,99879.00
2022-09-07T10:35:26.005Z,99876.91
2022-09-07T10:38:11.546Z,99877.31
2022-09-07T10:40:44.664Z,99873.78
2022-09-07T10:43:23.784Z,99873.78
2022-09-07T10:46:12.362Z,99886.84
2022-09-07T10:49:03.821Z,99877.34
2022-09-07T10:51:43.928Z,99877.63
2022-09-07T10:54:30.514Z,99878.97
2022-09-07T10:57:17.029Z,99882.25
2022-09-07T11:00:11.109Z,99888.91
2022-09-07T11:05:54.845Z,99895.56
2022-09-07T11:08:21.483Z,99902.22
2022-09-07T11:10:48.084Z,99902.44
2022-09-07T11:13:22.344Z,99902.66
2022-09-07T11:15:54.647Z,99908.28
2022-09-07T11:18:30.633Z,99903.75
2022-09-07T11:21:01.919Z,99899.09
2022-09-07T11:23:52.349Z,99903.06
2022-09-07T11:26:51.802Z,99902.25
2022-09-07T11:29:29.468Z,99908.09
2022-09-07T11:32:09.762Z,99904.78
2022-09-07T11:34:39.243Z,99914.38
2022-09-07T11:37:34.931Z,99919.19
2022-09-07T11:40:41.907Z,99911.25
2022-09-07T11:43:24.066Z,99910.25
2022-09-07T11:46:12.593Z,99908.78
2022-09-07T11:48:49.143Z,99913.81
2022-09-07T11:51:31.255Z,99911.72
2022-09-07T11:54:06.637Z,99909.38
2022-09-07T11:56:38.371Z,99906.03
2022-09-07T11:59:18.230Z,99906.38
2022-09-07T12:02:02.080Z,99915.75
2022-09-07T12:04:56.560Z,99915.94
2022-09-07T12:07:47.177Z,99922.09
2022-09-07T12:10:31.750Z,99923.78
2022-09-07T12:13:22.942Z,99922.56
2022-09-07T12:15:58.034Z,99916.72
2022-09-07T12:18:46.672Z,99921.72
2022-09-07T12:21:42.862Z,99916.09
2022-09-07T12:24:40.961Z,99920.47
2022-09-07T12:27:19.883Z,99928.38
2022-09-07T12:30:11.248Z,99933.38
2022-09-07T12:32:55.399Z,99935.22
2022-09-07T12:35:28.800Z,99936.47
2022-09-07T12:37:56.428Z,99927.97
2022-09-07T12:40:29.159Z,99934.81
2022-09-07T12:43:13.954Z,99930.03
2022-09-07T12:45:40.626Z,99943.50
2022-09-07T12:48:16.358Z,99942.53
2022-09-07T12:50:55.189Z,99940.81
2022-09-07T12:53:40.602Z,99940.00
2022-09-07T12:56:44.965Z,99933.97
2022-09-07T12:59:36.583Z,99941.50
2022-09-07T13:02:24.852Z,99945.66
2022-09-07T13:05:33.515Z,99944.78
2022-09-07T13:08:09.591Z,99948.13
2022-09-07T13:10:39.560Z,99951.25
2022-09-07T13:14:01.712Z,99949.97
2022-09-07T13:16:06.143Z,99951.69
2022-09-07T13:18:35.958Z,99945.66
2022-09-07T13:21:08.939Z,99948.13
2022-09-07T13:23:40.456Z,99954.78
2022-09-07T13:26:10.706Z,99965.00
2022-09-07T13:29:00.898Z,99962.50
2022-09-07T13:31:33.612Z,99961.88
2022-09-07T13:34:00.589Z,99961.44
2022-09-07T13:36:47.675Z,99963.06
2022-09-07T13:39:18.745Z,99964.16
2022-09-07T13:41:52.331Z,99957.28
2022-09-07T13:44:26.920Z,99956.44
2022-09-07T13:47:18.163Z,99957.28
2022-09-07T13:50:15.555Z,99957.06
2022-09-07T13:52:58.552Z,99955.59
2022-09-07T13:55:31.051Z,99968.06
2022-09-07T13:58:17.943Z,99962.25
2022-09-07T14:01:00.913Z,99965.41
2022-09-07T14:03:33.949Z,99960.41
2022-09-07T14:06:26.873Z,99961.66
2022-09-07T14:08:56.348Z,99957.66
2022-09-07T14:11:47.921Z,99960.19
2022-09-07T14:14:32.838Z,99963.72
2022-09-07T14:16:59.619Z,99973.72
2022-09-07T14:19:41.588Z,99970.19
2022-09-07T14:22:11.335Z,99971.44
2022-09-07T14:24:55.912Z,99976.84
2022-09-07T14:27:24.074Z,99974.78
2022-09-07T14:29:51.778Z,99973.50
2022-09-07T14:32:24.077Z,99966.66
2022-09-07T14:34:51.477Z,99982.25
2022-09-07T14:37:21.227Z,99974.78
2022-09-07T14:39:50.115Z,99969.75
2022-09-07T14:42:22.886Z,99972.47
2022-09-07T14:44:50.253Z,99974.97
2022-09-07T14:47:30.847Z,99971.81
2022-09-07T14:50:06.086Z,99972.22
2022-09-07T14:52:43.369Z,99981.16
2022-09-07T14:55:35.190Z,99983.88
2022-09-07T14:58:08.894Z,99976.59
2022-09-07T15:00:35.912Z,99977.00
2022-09-07T15:03:25.512Z,99977.41
2022-09-07T15:05:52.272Z,99982.59
2022-09-07T15:08:40.810Z,99979.28
2022-09-07T15:14:02.548Z,99974.25
2022-09-07T15:16:32.335Z,99969.91
2022-09-07T15:19:17.104Z,99969.72
2022-09-07T15:21:44.908Z,99975.56
2022-09-07T15:24:12.086Z,99975.94
2022-09-07T15:29:28.697Z,99983.38
2022-09-07T15:32:03.515Z,99980.44
2022-09-07T15:34:32.367Z,99978.97
2022-09-07T15:37:00.849Z,99981.47
2022-09-07T15:39:29.975Z,99978.34
2022-09-07T15:41:58.155Z,99972.53
2022-09-07T15:44:28.493Z,99969.81
2022-09-07T15:49:49.155Z,99969.25
2022-09-07T15:52:17.828Z,99965.47
2022-09-07T15:54:44.761Z,99969.66
2022-09-07T15:59:58.775Z,99972.97
2022-09-07T16:05:12.717Z,99983.59
2022-09-07T16:10:31.142Z,99987.72
2022-09-07T16:13:02.835Z,99980.44
2022-09-07T16:15:45.199Z,99980.72
2022-09-07T16:18:16.449Z,99987.59
2022-09-07T16:20:43.805Z,99979.84
2022-09-07T16:23:13.919Z,99987.31
2022-09-07T16:25:42.366Z,99988.97
2022-09-07T16:28:09.767Z,99985.22
2022-09-07T16:30:39.488Z,99984.22
2022-09-07T16:33:06.552Z,99981.31
2022-09-07T16:35:33.302Z,99981.72
2022-09-07T16:40:47.023Z,99979.59
2022-09-07T16:43:13.690Z,99988.75
2022-09-07T16:48:36.550Z,99972.41
2022-09-07T16:51:05.025Z,99970.69
2022-09-07T16:53:34.310Z,99972.34
2022-09-07T16:56:09.577Z,99975.22
2022-09-07T16:58:38.854Z,99972.59
2022-09-07T17:01:07.572Z,99973.84
2022-09-07T17:03:36.213Z,99968.53
2022-09-07T17:06:04.807Z,99981.19
2022-09-07T17:08:33.199Z,99977.03
2022-09-07T17:11:01.908Z,99976.44
2022-09-07T17:13:30.328Z,99974.50
2022-09-07T17:16:12.046Z,99978.53
2022-09-07T17:22:16.289Z,99979.09
2022-09-07T17:30:02.711Z,99981.78
2022-09-07T17:36:30.578Z,99980.38
2022-09-07T17:39:16.283Z,99986.00
2022-09-07T17:41:44.117Z,99984.81
2022-09-07T17:44:11.321Z,99992.41
2022-09-07T17:46:38.113Z,99984.53
2022-09-07T17:49:08.043Z,99990.72
2022-09-07T17:51:35.874Z,99991.94
2022-09-07T17:54:09.704Z,99990.72
2022-09-07T17:56:37.438Z,99993.56
2022-09-07T18:01:53.775Z,99990.75
2022-09-07T18:04:21.206Z,99984.47
2022-09-07T18:06:48.130Z,99985.63
2022-09-07T18:09:15.831Z,99989.31
2022-09-07T18:11:45.983Z,99990.50
2022-09-07T18:14:14.649Z,99992.34
2022-09-07T18:16:43.449Z,99994.22
2022-09-07T18:19:11.278Z,99994.59
2022-09-07T18:21:41.200Z,99994.22
2022-09-07T18:24:22.934Z,99991.78
2022-09-07T18:26:52.641Z,99992.94
2022-09-07T18:29:32.849Z,99996.66
2022-09-07T18:32:08.051Z,99996.28
2022-09-07T18:34:36.623Z,99995.00
2022-09-07T18:37:03.529Z,100004.13
2022-09-07T18:39:30.315Z,100002.00
2022-09-07T18:41:57.224Z,100007.84
2022-09-07T18:47:21.479Z,100009.47
2022-09-07T18:49:50.354Z,100006.41
2022-09-07T18:55:07.065Z,100010.06
2022-09-07T18:57:34.287Z,100011.06
2022-09-07T19:00:01.171Z,100019.06
2022-09-07T19:02:27.965Z,100015.13
2022-09-07T19:07:41.431Z,100025.53
2022-09-07T19:10:08.393Z,100027.06
2022-09-07T19:12:35.093Z,100033.28
2022-09-07T19:15:01.772Z,100024.38
2022-09-07T19:17:28.550Z,100033.06
2022-09-07T19:19:55.266Z,100026.16
2022-09-07T19:22:22.010Z,100026.41
2022-09-07T19:24:50.255Z,100035.16
2022-09-07T19:27:17.006Z,100034.16
2022-09-07T19:29:43.788Z,100035.94
2022-09-07T19:32:13.048Z,100035.81
2022-09-07T19:34:42.154Z,100033.88
2022-09-07T19:37:11.195Z,100036.50
2022-09-07T19:39:38.526Z,100034.97
2022-09-07T19:42:06.396Z,100034.16
2022-09-07T19:44:33.762Z,100030.16
2022-09-07T19:47:01.012Z,100030.16
2022-09-07T19:49:28.734Z,100024.66
2022-09-07T19:51:55.516Z,100032.81
2022-09-07T19:54:22.270Z,100030.66
2022-09-07T19:56:49.181Z,100032.34
2022-09-07T19:59:16.077Z,100022.78
2022-09-07T20:01:46.427Z,100021.56
2022-09-07T20:04:19.501Z,100025.16
2022-09-07T20:06:49.980Z,100020.38
2022-09-07T20:09:18.546Z,100025.78
2022-09-07T20:11:47.395Z,100027.41
2022-09-07T20:14:15.674Z,100029.91
2022-09-07T20:16:42.445Z,100028.25
2022-09-07T20:19:11.585Z,100025.16
2022-09-07T20:21:38.245Z,100023.69
2022-09-07T20:24:05.100Z,100027.72
2022-09-07T20:26:32.541Z,100028.25
2022-09-07T20:29:16.851Z,100026.81
2022-09-07T20:31:47.302Z,100036.97
2022-09-07T20:34:14.409Z,100031.59
2022-09-07T20:36:41.513Z,100032.91
2022-09-07T20:39:08.291Z,100033.22
2022-09-07T20:41:35.428Z,100044.03
2022-09-07T20:44:03.992Z,100047.03
2022-09-07T20:46:31.104Z,100050.03
2022-09-07T20:48:58.325Z,100045.75
2022-09-07T20:51:25.690Z,100043.00
2022-09-07T20:53:52.536Z,100052.09
2022-09-07T20:56:27.650Z,100047.81
2022-09-07T20:59:01.884Z,100044.34
2022-09-07T21:01:30.869Z,100048.66
2022-09-07T21:03:59.192Z,100042.81
2022-09-07T21:06:27.574Z,100039.06
2022-09-07T21:08:54.854Z,100035.56
2022-09-07T21:11:33.819Z,100044.03
2022-09-07T21:14:06.582Z,100038.91
2022-09-07T21:16:34.697Z,100036.56
2022-09-07T21:19:02.775Z,100029.53
2022-09-07T21:21:38.391Z,100036.19
2022-09-07T21:24:06.826Z,100033.94
2022-09-07T21:26:33.571Z,100043.56
2022-09-07T21:29:02.499Z,100046.69
2022-09-07T21:31:31.144Z,100042.41
2022-09-07T21:34:00.371Z,100041.59
2022-09-07T21:36:27.801Z,100033.59
2022-09-07T21:38:55.048Z,100027.00
2022-09-07T21:41:23.816Z,100031.31
2022-09-07T21:43:55.915Z,100031.44
2022-09-07T21:46:23.141Z,100036.56
2022-09-07T21:48:49.972Z,100037.84
2022-09-07T21:51:17.057Z,100042.03
2022-09-07T21:53:44.267Z,100033.50
2022-09-07T21:56:13.300Z,100034.84
2022-09-07T21:58:40.557Z,100030.16
2022-09-07T22:01:11.269Z,100035.25
2022-09-07T22:03:39.648Z,100043.00
2022-09-07T22:06:07.719Z,100041.13
2022-09-07T22:08:35.960Z,100042.88
2022-09-07T22:11:08.393Z,100044.06
2022-09-07T22:13:35.776Z,100050.50
2022-09-07T22:16:03.606Z,100039.53
2022-09-07T22:18:31.088Z,100044.28
2022-09-07T22:21:18.285Z,100042.59
2022-09-07T22:23:51.983Z,100048.28
2022-09-07T22:26:24.561Z,100037.84
2022-09-07T22:28:51.712Z,100032.66
2022-09-07T22:31:21.576Z,100033.88
2022-09-07T22:33:52.578Z,100041.59
2022-09-07T22:36:37.134Z,100037.63
2022-09-07T22:39:07.193Z,100042.38
2022-09-07T22:41:38.441Z,100044.47
2022-09-07T22:44:07.008Z,100038.19
2022-09-07T22:46:39.523Z,100042.38
2022-09-07T22:49:07.749Z,100033.88
2022-09-07T22:51:35.057Z,100036.84
2022-09-07T22:54:01.812Z,100033.38
2022-09-07T22:56:31.400Z,100029.19
2022-09-07T22:59:00.574Z,100027.34
2022-09-07T23:01:29.574Z,100026.94
2022-09-07T23:03:56.979Z,100030.47
2022-09-07T23:06:28.647Z,100025.00
2022-09-07T23:08:57.088Z,100034.00
2022-09-07T23:11:24.694Z,100042.53
2022-09-07T23:13:56.172Z,100040.25
2022-09-07T23:16:23.527Z,100045.81
2022-09-07T23:18:50.943Z,100037.50
2022-09-07T23:21:18.051Z,100027.97
2022-09-07T23:23:50.404Z,100022.19
2022-09-07T23:26:17.251Z,100017.19
2022-09-07T23:28:43.929Z,100014.22
2022-09-07T23:31:10.893Z,100012.13
2022-09-07T23:33:38.097Z,100013.16
2022-09-07T23:36:06.927Z,100012.50
2022-09-07T23:38:33.900Z,100018.38
2022-09-07T23:41:01.037Z,100014.31
2022-09-07T23:43:28.943Z,100015.13
2022-09-07T23:45:56.458Z,100018.34
2022-09-07T23:48:24.738Z,100012.25
2022-09-07T23:50:53.025Z,100012.06
2022-09-07T23:53:21.161Z,100004.63
2022-09-07T23:55:53.124Z,100015.00
2022-09-07T23:58:22.848Z,100007.34
